Time;durP1;ratioP1;P1;durP2;ratioP2;P2;SDS_P1;SDS_P2;PMS_P1;PMS_P2;Temp;Humidity;BMP_temperature;BMP_pressure;BME280_temperature;BME280_humidity;BME280_pressure;Samples;Min_cycle;Max_cycle;Signal;HPM_P1;HPM_P2
2022/12/19 00:01:17;;;;;;;82.22;31.80;;;;;;;5.01;100.00;101650.47;5083814;28;20096;-54
2022/12/19 00:03:53;;;;;;;94.00;35.55;;;;;;;4.40;100.00;101653.16;5082619;28;20047;-51
2022/12/19 00:06:19;;;;;;;92.55;36.28;;;;;;;4.12;100.00;101636.19;5079686;28;20033;-54
2022/12/19 00:08:46;;;;;;;98.25;33.85;;;;;;;4.08;100.00;101632.94;5083922;28;20052;-53
2022/12/19 00:11:14;;;;;;;83.53;32.88;;;;;;;4.12;100.00;101630.88;5078564;28;20060;-50
2022/12/19 00:13:41;;;;;;;89.32;36.40;;;;;;;4.37;100.00;101624.25;5079136;28;20096;-54
2022/12/19 00:16:10;;;;;;;77.82;29.08;;;;;;;4.08;100.00;101619.72;5077493;28;20084;-49
2022/12/19 00:18:39;;;;;;;95.75;36.75;;;;;;;4.15;100.00;101626.16;5079348;28;20025;-50
2022/12/19 00:21:05;;;;;;;91.30;33.05;;;;;;;5.06;100.00;101629.69;5089047;28;20033;-52
2022/12/19 00:23:33;;;;;;;98.60;36.40;;;;;;;4.47;100.00;101624.28;5079575;28;20032;-52
2022/12/19 00:26:22;;;;;;;103.90;33.92;;;;;;;4.62;100.00;101619.47;5080610;28;20060;-51
2022/12/19 00:28:51;;;;;;;102.25;36.97;;;;;;;5.49;100.00;101619.59;5079234;28;20029;-55
2022/12/19 00:31:18;;;;;;;85.43;34.38;;;;;;;4.41;100.00;101623.03;5079454;28;20116;-55
2022/12/19 00:33:46;;;;;;;115.40;38.13;;;;;;;4.44;100.00;101612.19;5079148;28;20036;-55
2022/12/19 00:36:14;;;;;;;96.32;36.90;;;;;;;4.41;100.00;101607.16;5077668;28;20040;-54
2022/12/19 00:38:45;;;;;;;96.22;36.75;;;;;;;4.33;100.00;101600.84;5076741;28;20032;-52
2022/12/19 00:41:12;;;;;;;89.45;34.35;;;;;;;5.39;100.00;101586.94;5075776;28;20099;-54
2022/12/19 00:43:38;;;;;;;98.53;35.15;;;;;;;4.42;100.00;101573.53;5079437;28;20044;-50
2022/12/19 00:46:05;;;;;;;;;;;;;;;4.52;100.00;101578.84;5079451;28;20040;-54
2022/12/19 00:48:31;;;;;;;102.65;38.70;;;;;;;5.59;100.00;101562.03;5081247;28;19919;-55
2022/12/19 00:51:02;;;;;;;90.82;34.63;;;;;;;6.87;100.00;101555.16;5077401;28;20033;-51
2022/12/19 00:53:27;;;;;;;95.40;31.77;;;;;;;5.22;100.00;101570.75;5077791;28;20037;-54
2022/12/19 00:55:56;;;;;;;96.25;36.05;;;;;;;4.82;100.00;101564.66;5076318;28;20096;-52
2022/12/19 00:58:22;;;;;;;94.38;36.97;;;;;;;5.74;100.00;101569.50;5081942;28;20047;-51
2022/12/19 01:00:48;;;;;;;91.35;33.95;;;;;;;6.17;100.00;101570.75;5078110;28;20041;-53
2022/12/19 01:03:13;;;;;;;106.20;39.33;;;;;;;5.05;100.00;101566.19;5079800;28;20044;-53
2022/12/19 01:05:39;;;;;;;96.20;34.77;;;;;;;5.38;100.00;101570.19;5083332;28;20029;-54
2022/12/19 01:08:04;;;;;;;96.07;33.80;;;;;;;4.83;100.00;101557.53;5081540;28;20274;-53
2022/12/19 01:10:30;;;;;;;86.00;31.17;;;;;;;5.72;100.00;101572.31;5076362;28;20036;-52
2022/12/19 01:12:56;;;;;;;79.83;33.17;;;;;;;5.30;100.00;101568.25;5076215;28;20064;-52
2022/12/19 01:15:21;;;;;;;94.50;36.83;;;;;;;5.70;100.00;101565.47;5079820;28;20025;-50
2022/12/19 01:17:47;;;;;;;88.93;34.83;;;;;;;6.27;100.00;101569.88;5079573;28;20088;-52
2022/12/19 01:20:16;;;;;;;96.57;35.45;;;;;;;5.43;100.00;101561.78;5084231;28;20058;-53
2022/12/19 01:22:43;;;;;;;94.50;31.95;;;;;;;5.58;100.00;101547.09;5077058;28;20039;-51
2022/12/19 01:25:13;;;;;;;98.15;35.90;;;;;;;5.74;100.00;101532.34;5080473;28;20036;-52
2022/12/19 01:27:39;;;;;;;80.95;28.33;;;;;;;7.07;100.00;101555.84;5074724;28;20047;-53
2022/12/19 01:30:05;;;;;;;101.03;35.80;;;;;;;6.63;100.00;101532.69;5078403;28;20053;-52
2022/12/19 01:32:34;;;;;;;84.18;30.02;;;;;;;6.03;100.00;101557.97;5082377;28;20045;-51
2022/12/19 01:35:01;;;;;;;83.82;33.53;;;;;;;5.39;100.00;101542.66;5082630;28;20047;-54
2022/12/19 01:37:26;;;;;;;83.75;30.27;;;;;;;6.69;100.00;101542.75;5084964;28;20028;-54
2022/12/19 01:39:52;;;;;;;91.65;33.05;;;;;;;5.93;100.00;101535.91;5079091;28;20090;-53
2022/12/19 01:42:20;;;;;;;84.77;30.27;;;;;;;7.21;100.00;101562.44;5081734;28;20035;-53
2022/12/19 01:45:07;;;;;;;85.43;31.42;;;;;;;6.49;100.00;101536.72;5082072;28;20037;-50
2022/12/19 01:47:55;;;;;;;78.55;30.58;;;;;;;6.11;100.00;101539.47;5078001;28;20040;-56
2022/12/19 01:50:51;;;;;;;88.80;31.63;;;;;;;7.11;100.00;101532.41;5080715;28;20067;-52
2022/12/19 01:53:18;;;;;;;76.50;28.83;;;;;;;7.89;100.00;101538.66;5075161;28;20036;-54
2022/12/19 01:55:44;;;;;;;78.22;29.23;;;;;;;6.30;100.00;101527.88;5073653;28;20033;-51
2022/12/19 01:58:12;;;;;;;77.95;28.30;;;;;;;6.23;100.00;101523.31;5075943;28;20088;-53
2022/12/19 02:00:42;;;;;;;63.95;22.95;;;;;;;6.25;100.00;101540.78;5073904;28;20031;-54
2022/12/19 02:03:22;;;;;;;74.25;29.33;;;;;;;6.29;100.00;101541.34;5076334;28;20033;-53
2022/12/19 02:05:51;;;;;;;74.85;30.20;;;;;;;6.42;100.00;101519.72;5076574;28;20033;-54
2022/12/19 02:08:17;;;;;;;83.40;28.15;;;;;;;7.17;100.00;101521.97;5075123;28;20039;-49
2022/12/19 02:10:43;;;;;;;80.10;29.73;;;;;;;6.86;100.00;101533.06;5081234;28;20033;-53
2022/12/19 02:13:09;;;;;;;86.85;32.20;;;;;;;6.41;100.00;101508.22;5081131;28;20036;-53
2022/12/19 02:16:02;;;;;;;77.63;27.50;;;;;;;7.26;100.00;101514.91;5077859;28;20033;-50
2022/12/19 02:18:52;;;;;;;75.63;28.80;;;;;;;6.51;100.00;101504.69;5076184;28;20036;-52
2022/12/19 02:21:21;;;;;;;75.38;27.38;;;;;;;6.53;100.00;101500.06;5083603;28;20041;-51
2022/12/19 02:24:13;;;;;;;80.22;30.02;;;;;;;6.57;100.00;101496.94;5080439;28;20103;-49
2022/12/19 02:26:55;;;;;;;71.30;26.15;;;;;;;6.69;100.00;101504.66;5076058;28;20037;-55
2022/12/19 02:29:27;;;;;;;72.97;29.67;;;;;;;6.26;100.00;101484.03;5078252;28;20059;-55
2022/12/19 02:31:55;;;;;;;77.47;30.33;;;;;;;6.40;100.00;101476.53;5071642;28;20045;-49
2022/12/19 02:34:50;;;;;;;71.75;26.65;;;;;;;6.45;100.00;101477.72;5082424;28;20051;-51
2022/12/19 02:37:24;;;;;;;73.55;27.63;;;;;;;6.43;100.00;101474.38;5078135;28;20036;-54
2022/12/19 02:39:57;;;;;;;71.25;28.92;;;;;;;6.66;100.00;101473.91;5080721;28;20040;-51
2022/12/19 02:42:30;;;;;;;68.80;28.38;;;;;;;6.89;100.00;101473.41;5079611;28;20109;-54
2022/12/19 02:45:02;;;;;;;72.47;28.23;;;;;;;7.08;100.00;101468.88;5078811;28;20049;-52
2022/12/19 02:47:31;;;;;;;88.20;28.95;;;;;;;7.56;100.00;101467.47;5080246;28;20043;-51
2022/12/19 02:49:59;;;;;;;62.00;26.08;;;;;;;6.90;100.00;101453.81;5075585;28;20345;-50
2022/12/19 02:52:24;;;;;;;73.63;28.23;;;;;;;6.90;100.00;101453.81;5077317;28;20040;-51
2022/12/19 02:54:54;;;;;;;82.63;28.83;;;;;;;6.83;100.00;101452.78;5076248;28;20029;-52
2022/12/19 02:57:40;;;;;;;67.75;26.95;;;;;;;6.86;100.00;101440.00;5081838;28;20024;-54
2022/12/19 03:00:13;;;;;;;75.53;26.92;;;;;;;6.89;100.00;101433.53;5082720;28;20037;-56
2022/12/19 03:03:12;;;;;;;72.55;25.52;;;;;;;6.87;100.00;101439.03;5085350;28;20037;-55
2022/12/19 03:06:02;;;;;;;69.88;27.73;;;;;;;6.80;100.00;101439.78;5084991;28;20052;-56
2022/12/19 03:08:34;;;;;;;79.00;29.77;;;;;;;6.93;100.00;101442.88;5084072;28;20037;-53
2022/12/19 03:11:14;;;;;;;75.65;28.00;;;;;;;6.91;100.00;101439.53;5078654;28;20061;-52
2022/12/19 03:13:54;;;;;;;71.63;26.45;;;;;;;6.92;100.00;101437.72;5074871;28;20031;-54
2022/12/19 03:16:20;;;;;;;80.78;29.38;;;;;;;6.92;100.00;101432.38;5075902;28;20118;-55
2022/12/19 03:18:46;;;;;;;78.32;27.65;;;;;;;7.18;100.00;101441.19;5088616;28;20025;-51
2022/12/19 03:21:32;;;;;;;74.23;29.50;;;;;;;6.77;100.00;101426.81;5078632;28;20032;-54
2022/12/19 03:23:58;;;;;;;75.40;27.52;;;;;;;6.98;100.00;101435.25;5079941;28;20122;-54
2022/12/19 03:26:28;;;;;;;72.25;28.13;;;;;;;7.01;100.00;101423.47;5083416;28;20040;-56
2022/12/19 03:29:15;;;;;;;80.15;30.13;;;;;;;7.12;100.00;101419.69;5078343;28;20025;-50
2022/12/19 03:31:43;;;;;;;;;;;;;;;7.17;100.00;101422.75;5073777;28;20120;-54
2022/12/19 03:34:15;;;;;;;75.82;28.52;;;;;;;7.24;100.00;101413.13;5080987;28;19917;-55
2022/12/19 03:36:47;;;;;;;70.15;28.80;;;;;;;7.06;100.00;101409.69;5081015;28;20021;-55
2022/12/19 03:39:15;;;;;;;77.28;29.02;;;;;;;7.27;100.00;101418.13;5082635;28;20041;-53
2022/12/19 03:44:49;;;;;;;80.88;28.35;;;;;;;7.21;100.00;101408.13;5089393;28;20036;-55
2022/12/19 03:47:23;;;;;;;71.70;28.08;;;;;;;7.20;100.00;101395.81;5087529;28;20056;-56
2022/12/19 03:49:49;;;;;;;82.28;30.13;;;;;;;7.12;100.00;101403.75;5074838;28;20049;-54
2022/12/19 03:52:33;;;;;;;74.30;27.20;;;;;;;7.28;100.00;101403.00;5081038;28;20031;-56
2022/12/19 03:55:23;;;;;;;70.13;27.60;;;;;;;7.21;100.00;101393.97;5075896;28;20040;-53
2022/12/19 03:58:16;;;;;;;80.07;27.90;;;;;;;7.18;100.00;101387.16;5076753;28;20044;-56
2022/12/19 04:00:46;;;;;;;64.00;26.45;;;;;;;8.13;100.00;101379.88;5076002;28;20064;-53
2022/12/19 04:03:14;;;;;;;80.38;28.70;;;;;;;7.55;100.00;101369.16;5077119;28;20040;-55
2022/12/19 04:05:41;;;;;;;77.00;27.10;;;;;;;7.68;100.00;101382.00;5077846;28;20051;-53
2022/12/19 04:08:08;;;;;;;58.35;23.30;;;;;;;7.45;100.00;101379.94;5080795;28;20039;-55
2022/12/19 04:10:45;;;;;;;67.30;26.13;;;;;;;7.20;100.00;101379.84;5077137;28;20037;-52
2022/12/19 04:13:18;;;;;;;68.13;25.33;;;;;;;6.99;100.00;101369.59;5072833;28;20032;-51
2022/12/19 04:16:22;;;;;;;70.15;25.85;;;;;;;7.17;100.00;101377.50;5075782;28;20033;-50
2022/12/19 04:18:57;;;;;;;60.47;23.55;;;;;;;7.29;100.00;101373.56;5074753;28;20036;-54
2022/12/19 04:21:29;;;;;;;56.35;22.92;;;;;;;7.32;100.00;101359.13;5075670;28;20059;-54
2022/12/19 04:24:04;;;;;;;61.05;23.80;;;;;;;7.51;100.00;101350.00;5077579;28;20033;-57
2022/12/19 04:26:33;;;;;;;50.88;22.08;;;;;;;7.45;100.00;101358.66;5081334;28;20044;-56
2022/12/19 04:29:03;;;;;;;52.80;23.88;;;;;;;7.72;100.00;101364.69;5081247;28;20074;-55
2022/12/19 04:31:29;;;;;;;63.60;23.17;;;;;;;7.85;100.00;101362.41;5076333;28;20056;-55
2022/12/19 04:33:55;;;;;;;48.15;22.70;;;;;;;7.85;100.00;101357.09;5083969;28;20037;-55
2022/12/19 04:36:23;;;;;;;50.95;20.85;;;;;;;9.09;100.00;101364.09;5075381;28;20041;-56
2022/12/19 04:38:49;;;;;;;52.65;20.42;;;;;;;7.76;100.00;101363.38;5074128;28;20037;-55
2022/12/19 04:41:14;;;;;;;57.13;23.13;;;;;;;8.18;100.00;101357.09;5075462;28;20048;-57
2022/12/19 04:43:40;;;;;;;49.83;20.53;;;;;;;7.93;100.00;101374.88;5077139;28;20059;-55
2022/12/19 04:46:05;;;;;;;52.83;20.70;;;;;;;8.02;100.00;101362.41;5074830;28;20285;-54
2022/12/19 04:48:34;;;;;;;43.30;19.07;;;;;;;8.30;100.00;101364.72;5077345;28;20044;-58
2022/12/19 04:50:59;;;;;;;47.53;20.15;;;;;;;8.08;100.00;101376.91;5076416;28;20041;-56
2022/12/19 04:53:25;;;;;;;46.47;20.30;;;;;;;8.10;100.00;101362.44;5075299;28;20044;-57
2022/12/19 04:55:59;;;;;;;42.40;18.57;;;;;;;8.11;100.00;101360.59;5074536;28;20049;-55
2022/12/19 04:58:24;;;;;;;46.42;19.77;;;;;;;8.05;100.00;101364.72;5073468;28;20262;-59
2022/12/19 05:00:50;;;;;;;42.53;18.47;;;;;;;8.69;100.00;101364.06;5075097;28;20056;-56
2022/12/19 05:03:16;;;;;;;41.78;18.95;;;;;;;8.60;100.00;101365.09;5077238;28;20060;-52
2022/12/19 05:05:41;;;;;;;45.87;18.60;;;;;;;8.90;100.00;101344.00;5075384;28;20053;-55
2022/12/19 05:08:07;;;;;;;43.63;16.77;;;;;;;8.61;100.00;101350.75;5077679;28;20269;-57
2022/12/19 05:10:32;;;;;;;34.07;15.20;;;;;;;8.73;100.00;101356.56;5073709;28;20045;-56
2022/12/19 05:12:57;;;;;;;32.97;14.87;;;;;;;8.65;100.00;101345.88;5076960;28;20044;-56
2022/12/19 05:15:23;;;;;;;34.83;15.90;;;;;;;8.89;100.00;101353.00;5073924;28;20117;-55
2022/12/19 05:17:49;;;;;;;31.43;16.33;;;;;;;8.80;100.00;101354.06;5080080;28;20040;-56
2022/12/19 05:20:14;;;;;;;33.80;15.33;;;;;;;8.85;100.00;101355.19;5077621;28;20055;-55
2022/12/19 05:22:40;;;;;;;28.77;15.00;;;;;;;8.99;100.00;101350.97;5081118;28;20330;-57
2022/12/19 05:25:05;;;;;;;35.80;15.90;;;;;;;9.01;100.00;101345.47;5081021;28;20037;-55
2022/12/19 05:27:31;;;;;;;26.95;13.07;;;;;;;9.76;100.00;101340.56;5075497;28;20090;-54
2022/12/19 05:29:56;;;;;;;23.87;11.40;;;;;;;9.30;100.00;101350.19;5080612;28;20032;-55
2022/12/19 05:32:21;;;;;;;31.47;14.30;;;;;;;9.21;100.00;101343.19;5073380;28;20061;-55
2022/12/19 05:34:47;;;;;;;23.73;11.97;;;;;;;9.19;100.00;101339.88;5071490;28;20035;-54
2022/12/19 05:37:13;;;;;;;24.45;12.40;;;;;;;9.45;100.00;101346.75;5075336;28;20088;-52
2022/12/19 05:39:38;;;;;;;20.83;11.10;;;;;;;9.52;100.00;101341.53;5073009;28;20033;-56
2022/12/19 05:42:04;;;;;;;23.37;11.30;;;;;;;11.22;100.00;101347.53;5077225;28;20285;-55
2022/12/19 05:44:29;;;;;;;24.13;12.33;;;;;;;9.56;100.00;101341.03;5075698;28;20063;-53
2022/12/19 05:46:55;;;;;;;24.08;10.73;;;;;;;9.74;100.00;101337.25;5072591;28;20037;-55
2022/12/19 05:49:20;;;;;;;20.77;10.67;;;;;;;9.71;100.00;101342.94;5075936;28;20053;-53
2022/12/19 05:51:46;;;;;;;28.63;12.37;;;;;;;9.82;100.00;101337.19;5073184;28;20054;-51
2022/12/19 05:54:11;;;;;;;25.87;12.03;;;;;;;9.82;100.00;101339.03;5075036;28;20087;-55
2022/12/19 05:56:37;;;;;;;24.50;11.17;;;;;;;10.42;100.00;101331.19;5075453;28;20292;-56
2022/12/19 05:59:02;;;;;;;24.27;11.67;;;;;;;10.70;100.00;101343.94;5075303;28;20036;-54
2022/12/19 06:01:29;;;;;;;25.42;12.18;;;;;;;9.72;100.00;101357.97;5073928;28;20037;-56
2022/12/19 06:03:54;;;;;;;27.27;13.80;;;;;;;9.72;100.00;101352.63;5083954;28;20066;-54
2022/12/19 06:06:22;;;;;;;25.95;12.38;;;;;;;10.65;100.00;101362.41;5080290;28;20289;-52
2022/12/19 06:08:52;;;;;;;27.55;12.95;;;;;;;10.05;100.00;101341.69;5075562;28;20092;-53
2022/12/19 06:11:18;;;;;;;24.33;11.70;;;;;;;9.93;100.00;101345.81;5076498;28;20029;-57
2022/12/19 06:13:43;;;;;;;23.00;12.17;;;;;;;10.07;100.00;101347.69;5080911;28;20067;-54
2022/12/19 06:16:14;;;;;;;22.42;11.57;;;;;;;10.21;100.00;101369.31;5078460;28;20085;-54
2022/12/19 06:18:41;;;;;;;29.10;12.07;;;;;;;10.09;100.00;101361.69;5078796;28;20040;-57
2022/12/19 06:21:25;;;;;;;31.40;11.50;;;;;;;10.21;100.00;101353.25;5082154;28;20028;-57
2022/12/19 06:23:51;;;;;;;30.25;13.38;;;;;;;10.44;100.00;101346.06;5073746;28;20036;-55
2022/12/19 06:26:19;;;;;;;26.23;11.57;;;;;;;10.01;100.00;101340.38;5075495;28;20042;-57
2022/12/19 06:28:45;;;;;;;24.73;12.75;;;;;;;10.13;100.00;101343.47;5071738;28;20021;-56
2022/12/19 06:31:11;;;;;;;23.83;12.18;;;;;;;10.13;100.00;101338.13;5070276;28;20075;-54
2022/12/19 06:33:36;;;;;;;24.63;12.70;;;;;;;10.64;100.00;101340.19;5072826;28;20048;-53
2022/12/19 06:36:05;;;;;;;20.15;11.40;;;;;;;10.28;100.00;101347.03;5082508;28;20043;-56
2022/12/19 06:38:32;;;;;;;24.02;10.50;;;;;;;10.21;100.00;101342.56;5073126;28;20032;-56
2022/12/19 06:43:43;;;;;;;25.33;11.90;;;;;;;10.35;100.00;101356.97;5075407;28;20037;-57
2022/12/19 06:46:09;;;;;;;24.98;10.68;;;;;;;11.56;100.00;101350.59;5072559;28;20120;-53
2022/12/19 06:48:35;;;;;;;22.70;10.77;;;;;;;10.59;100.00;101347.91;5066623;28;20034;-56
2022/12/19 06:51:01;;;;;;;20.05;10.70;;;;;;;10.22;100.00;101357.59;5070264;28;20034;-56
2022/12/19 06:53:28;;;;;;;27.40;12.38;;;;;;;10.47;100.00;101361.75;5077466;28;20029;-53
2022/12/19 06:55:56;;;;;;;26.75;12.63;;;;;;;10.53;100.00;101349.50;5075648;28;20032;-53
2022/12/19 06:58:23;;;;;;;24.13;12.43;;;;;;;10.84;100.00;101345.81;5086571;28;20059;-55
2022/12/19 07:00:48;;;;;;;23.88;11.95;;;;;;;11.04;100.00;101351.41;5074953;28;20037;-52
2022/12/19 07:03:24;;;;;;;24.85;12.18;;;;;;;10.65;100.00;101347.19;5072375;28;20040;-56
2022/12/19 07:05:49;;;;;;;27.60;13.18;;;;;;;10.67;100.00;101342.50;5072560;28;20129;-52
2022/12/19 07:08:15;;;;;;;23.47;11.83;;;;;;;10.61;100.00;101354.75;5074343;28;20033;-56
2022/12/19 07:10:40;;;;;;;23.70;11.40;;;;;;;10.73;100.00;101359.66;5073749;28;20044;-57
2022/12/19 07:13:06;;;;;;;22.43;11.57;;;;;;;10.35;100.00;101368.50;5073080;28;20052;-53
2022/12/19 07:15:33;;;;;;;28.15;12.93;;;;;;;11.16;100.00;101377.72;5076180;28;20036;-52
2022/12/19 07:18:02;;;;;;;26.05;13.05;;;;;;;10.53;100.00;101364.69;5068921;28;20033;-54
2022/12/19 07:20:30;;;;;;;30.73;13.02;;;;;;;10.63;100.00;101364.44;5073974;28;20037;-55
2022/12/19 07:22:56;;;;;;;25.38;13.32;;;;;;;10.49;100.00;101358.06;5077631;28;20096;-52
2022/12/19 07:25:21;;;;;;;21.80;11.20;;;;;;;11.10;100.00;101367.78;5076159;28;20040;-52
2022/12/19 07:27:47;;;;;;;22.35;11.82;;;;;;;10.68;100.00;101368.22;5070915;28;20081;-52
2022/12/19 07:30:14;;;;;;;25.08;13.35;;;;;;;10.80;100.00;101375.78;5074676;28;20033;-56
2022/12/19 07:32:39;;;;;;;23.93;12.90;;;;;;;10.41;100.00;101383.00;5076298;28;20116;-55
2022/12/19 07:35:08;;;;;;;22.93;11.03;;;;;;;10.82;100.00;101376.44;5073245;28;20044;-56
2022/12/19 07:37:34;;;;;;;25.48;12.07;;;;;;;10.78;100.00;101375.13;5076697;28;20044;-56
2022/12/19 07:40:00;;;;;;;40.40;13.20;;;;;;;10.79;100.00;101384.81;5080758;28;20096;-58
2022/12/19 07:42:26;;;;;;;23.60;12.90;;;;;;;11.19;100.00;101390.75;5078943;28;20055;-56
2022/12/19 07:44:51;;;;;;;21.10;11.73;;;;;;;10.96;100.00;101377.47;5075831;28;20032;-59
2022/12/19 07:47:17;;;;;;;27.23;11.83;;;;;;;10.98;100.00;101383.47;5082832;28;20028;-55
2022/12/19 07:49:42;;;;;;;23.60;11.10;;;;;;;10.78;100.00;101381.34;5078265;28;20266;-56
2022/12/19 07:52:08;;;;;;;24.60;12.13;;;;;;;10.98;100.00;101372.75;5080553;28;20096;-59
2022/12/19 07:54:34;;;;;;;24.15;13.13;;;;;;;11.03;100.00;101379.19;5078993;28;20043;-58
2022/12/19 07:57:00;;;;;;;20.47;12.13;;;;;;;10.98;100.00;101375.44;5080418;28;20029;-57
2022/12/19 07:59:26;;;;;;;22.55;11.70;;;;;;;11.04;100.00;101378.19;5080958;28;20025;-56
2022/12/19 08:01:51;;;;;;;29.23;11.00;;;;;;;11.09;100.00;101390.19;5080878;28;20053;-57
2022/12/19 08:04:17;;;;;;;22.10;13.13;;;;;;;11.12;100.00;101395.19;5080065;28;20100;-56
2022/12/19 08:06:42;;;;;;;26.90;12.23;;;;;;;10.99;100.00;101391.28;5079964;28;20282;-56
2022/12/19 08:09:08;;;;;;;22.98;11.30;;;;;;;11.06;100.00;101404.78;5078433;28;20043;-56
2022/12/19 08:11:33;;;;;;;23.92;11.45;;;;;;;11.06;100.00;101410.13;5080343;28;20071;-57
2022/12/19 08:13:59;;;;;;;26.57;11.50;;;;;;;10.91;100.00;101396.75;5077109;28;20035;-56
2022/12/19 08:16:26;;;;;;;25.50;11.82;;;;;;;10.80;100.00;101413.25;5076377;28;20092;-54
2022/12/19 08:18:52;;;;;;;32.13;11.57;;;;;;;10.83;100.00;101413.72;5077263;28;20110;-57
2022/12/19 08:21:18;;;;;;;25.65;11.60;;;;;;;10.83;100.00;101413.72;5081304;28;20442;-56
2022/12/19 08:23:44;;;;;;;26.58;10.77;;;;;;;10.78;100.00;101393.88;5077323;28;20052;-56
2022/12/19 08:26:12;;;;;;;25.83;12.60;;;;;;;10.76;100.00;101397.56;5078953;28;20041;-57
2022/12/19 08:28:38;;;;;;;38.13;12.93;;;;;;;10.91;100.00;101394.06;5075040;28;20025;-55
2022/12/19 08:31:06;;;;;;;25.15;11.55;;;;;;;11.82;100.00;101390.25;5080934;28;20064;-58
2022/12/19 08:33:32;;;;;;;22.08;10.60;;;;;;;10.98;100.00;101396.84;5077031;28;20108;-58
2022/12/19 08:35:57;;;;;;;29.67;11.43;;;;;;;12.30;100.00;101392.34;5078680;28;20029;-57
2022/12/19 08:38:22;;;;;;;22.33;10.97;;;;;;;11.16;100.00;101407.19;5080500;28;20036;-58
2022/12/19 08:40:55;;;;;;;22.77;9.57;;;;;;;11.15;100.00;101389.44;5080071;28;20028;-55
2022/12/19 08:43:22;;;;;;;21.20;10.75;;;;;;;11.08;100.00;101409.97;5077178;28;20088;-59
2022/12/19 08:45:48;;;;;;;28.77;11.57;;;;;;;11.24;100.00;101404.38;5076686;28;20037;-56
2022/12/19 08:48:14;;;;;;;18.10;10.68;;;;;;;11.23;100.00;101402.72;5080837;28;20040;-58
2022/12/19 08:50:39;;;;;;;24.65;11.27;;;;;;;11.22;100.00;101406.44;5085746;28;20036;-57
2022/12/19 08:53:05;;;;;;;24.50;10.83;;;;;;;11.14;100.00;101409.22;5084676;28;20032;-56
2022/12/19 08:55:30;;;;;;;22.13;11.00;;;;;;;11.27;100.00;101409.38;5081029;28;20025;-56
2022/12/19 08:57:56;;;;;;;26.47;10.20;;;;;;;11.10;100.00;101403.38;5081303;28;20047;-56
2022/12/19 09:00:21;;;;;;;28.13;10.97;;;;;;;11.44;100.00;101415.38;5078696;28;20059;-55
2022/12/19 09:02:47;;;;;;;28.17;10.53;;;;;;;12.54;100.00;101409.06;5081556;28;20304;-54
2022/12/19 09:05:12;;;;;;;23.03;10.20;;;;;;;11.08;100.00;101413.44;5079765;28;20041;-56
2022/12/19 09:07:39;;;;;;;24.57;11.43;;;;;;;11.27;100.00;101414.72;5081188;28;20030;-56
2022/12/19 09:10:06;;;;;;;19.08;10.05;;;;;;;11.33;100.00;101414.00;5081056;28;20282;-56
2022/12/19 09:12:32;;;;;;;19.58;10.73;;;;;;;11.26;100.00;101428.31;5078470;28;20045;-55
2022/12/19 09:14:57;;;;;;;22.70;10.60;;;;;;;11.19;100.00;101425.53;5083368;28;20040;-55
2022/12/19 09:17:22;;;;;;;21.83;10.60;;;;;;;11.41;100.00;101425.63;5082596;28;20092;-53
2022/12/19 09:19:48;;;;;;;25.55;11.48;;;;;;;11.30;100.00;101424.25;5083267;28;20032;-55
2022/12/19 09:22:15;;;;;;;22.33;10.40;;;;;;;11.14;100.00;101422.59;5078746;28;20048;-55
2022/12/19 09:24:40;;;;;;;23.08;10.85;;;;;;;11.44;100.00;101426.09;5080503;28;20059;-57
2022/12/19 09:27:05;;;;;;;18.17;9.80;;;;;;;11.37;100.00;101424.34;5080020;28;20040;-55
2022/12/19 09:29:31;;;;;;;18.42;10.30;;;;;;;11.27;100.00;101421.94;5083663;28;20032;-56
2022/12/19 09:31:56;;;;;;;22.33;10.53;;;;;;;11.54;100.00;101419.59;5074613;28;20059;-57
2022/12/19 09:34:27;;;;;;;22.43;11.70;;;;;;;11.38;100.00;101415.28;5086212;28;20051;-54
2022/12/19 09:36:53;;;;;;;18.20;9.88;;;;;;;11.56;100.00;101420.25;5084039;28;20093;-57
2022/12/19 09:39:18;;;;;;;20.87;11.23;;;;;;;11.19;100.00;101422.88;5082079;28;20020;-55
2022/12/19 09:41:44;;;;;;;19.20;10.33;;;;;;;11.85;100.00;101430.06;5078698;28;20039;-55
2022/12/19 09:44:32;;;;;;;22.10;9.77;;;;;;;11.94;100.00;101435.28;5077103;28;20037;-55
2022/12/19 09:47:01;;;;;;;21.80;9.45;;;;;;;11.04;100.00;101439.75;5076770;28;20056;-55
2022/12/19 09:49:38;;;;;;;21.52;11.15;;;;;;;11.48;100.00;101437.25;5079046;28;20034;-56
2022/12/19 09:52:10;;;;;;;20.45;10.80;;;;;;;11.56;100.00;101429.13;5076829;28;20037;-55
2022/12/19 09:54:43;;;;;;;19.52;10.00;;;;;;;11.46;100.00;101428.56;5077584;28;20024;-57
2022/12/19 09:57:32;;;;;;;23.48;10.60;;;;;;;11.27;100.00;101421.94;5075847;28;20029;-54
2022/12/19 10:00:10;;;;;;;21.20;10.82;;;;;;;11.35;100.00;101423.69;5070331;28;20044;-55
2022/12/19 10:03:00;;;;;;;16.77;9.85;;;;;;;11.28;100.00;101432.44;5080120;28;20052;-54
2022/12/19 10:05:32;;;;;;;21.48;10.80;;;;;;;11.42;100.00;101448.72;5079463;28;20040;-56
2022/12/19 10:07:58;;;;;;;21.23;10.60;;;;;;;12.69;100.00;101430.47;5078534;28;20070;-56
2022/12/19 10:10:46;;;;;;;17.75;9.40;;;;;;;12.67;100.00;101434.34;5076730;28;20037;-55
2022/12/19 10:13:28;;;;;;;22.02;10.82;;;;;;;11.76;100.00;101426.66;5077057;28;20033;-56
2022/12/19 10:16:18;;;;;;;21.65;9.80;;;;;;;11.63;100.00;101437.22;5080286;28;20021;-56
2022/12/19 10:18:55;;;;;;;22.50;11.15;;;;;;;11.45;100.00;101424.22;5076812;28;20415;-54
2022/12/19 10:21:32;;;;;;;20.98;10.30;;;;;;;11.71;100.00;101410.31;5079792;28;20025;-57
2022/12/19 10:24:30;;;;;;;23.20;10.30;;;;;;;11.62;100.00;101416.81;5079631;28;20055;-56
2022/12/19 10:27:05;;;;;;;18.20;9.52;;;;;;;12.10;100.00;101424.38;5068169;28;20088;-53
2022/12/19 10:30:14;;;;;;;21.48;9.60;;;;;;;12.28;100.00;101421.22;5077680;28;20033;-57
2022/12/19 10:33:00;;;;;;;25.92;11.18;;;;;;;12.95;100.00;101399.44;5077120;28;20052;-56
2022/12/19 10:35:40;;;;;;;21.77;10.30;;;;;;;11.72;100.00;101408.47;5081654;28;20033;-51
2022/12/19 10:38:34;;;;;;;21.40;11.48;;;;;;;11.73;100.00;101405.59;5076575;28;20678;-51
2022/12/19 10:41:17;;;;;;;14.15;8.35;;;;;;;11.73;100.00;101410.97;5079779;28;20104;-52
2022/12/19 10:44:06;;;;;;;19.33;9.80;;;;;;;11.73;100.00;101407.44;5077102;28;20029;-56
2022/12/19 10:46:38;;;;;;;19.45;10.10;;;;;;;11.76;100.00;101412.41;5077048;28;20100;-52
2022/12/19 10:49:17;;;;;;;18.17;9.93;;;;;;;11.73;100.00;101416.31;5075920;28;20041;-56
2022/12/19 10:51:57;;;;;;;17.57;8.80;;;;;;;11.82;100.00;101418.88;5079078;28;20040;-52
2022/12/19 10:54:25;;;;;;;17.20;9.20;;;;;;;11.72;100.00;101406.63;5074418;28;20300;-51
2022/12/19 10:56:51;;;;;;;16.88;9.30;;;;;;;11.99;100.00;101406.06;5080490;28;20284;-50
2022/12/19 10:59:19;;;;;;;13.93;8.30;;;;;;;12.16;100.00;101401.31;5079057;28;20041;-53
2022/12/19 11:01:47;;;;;;;16.83;7.97;;;;;;;11.74;100.00;101409.09;5081717;28;20028;-52
2022/12/19 11:04:31;;;;;;;17.60;9.00;;;;;;;11.91;100.00;101413.22;5076294;28;20037;-52
2022/12/19 11:07:16;;;;;;;23.57;9.57;;;;;;;12.13;100.00;101404.41;5076287;28;20032;-52
2022/12/19 11:09:44;;;;;;;14.37;7.40;;;;;;;11.67;100.00;101437.69;5077823;28;20270;-55
2022/12/19 11:12:16;;;;;;;20.77;9.43;;;;;;;11.66;100.00;101409.22;5079048;28;20304;-54
2022/12/19 11:14:49;;;;;;;16.47;7.93;;;;;;;11.65;100.00;101394.16;5077375;28;20265;-52
2022/12/19 11:17:31;;;;;;;16.07;8.57;;;;;;;11.88;100.00;101375.25;5075243;28;20266;-54
2022/12/19 11:19:57;;;;;;;13.30;7.73;;;;;;;11.46;100.00;101393.75;5076206;28;20273;-55
2022/12/19 11:22:29;;;;;;;15.40;8.75;;;;;;;11.63;100.00;101402.38;5083185;28;20281;-52
2022/12/19 11:24:55;;;;;;;15.83;8.33;;;;;;;11.78;100.00;101383.63;5081663;28;20044;-55
2022/12/19 11:27:42;;;;;;;13.77;8.00;;;;;;;11.76;100.00;101391.81;5084542;28;20289;-54